Allendale, SC

1:11 PM EDT on August 03, 2015 (GMT -0400)
JCO Farms | | Change Station
CLOSE
Current Station
Personal Weather Station
Location: Fairfax, SC
Elevation: 167 ft
Nearby Weather Stations

Elev 167 ft 32.99 °N, 81.29 °W | Updated 16 seconds ago

Mostly Cloudy
Mostly Cloudy
82.4 °F
Feels Like 92 °F
N
1.1
Wind Variable Wind from East
Gusts 2.5 mph

Today
High -- | Low -- °F
--% Chance of Precip.
Yesterday
High -- | Low -- °F
Precip. -- in
6:39 AM 8:22 PM
Waning Gibbous, 85% visible
Pressure 29.92 in
Visibility 5.0 miles
Clouds Scattered Clouds 1200 ft
Mostly Cloudy 2800 ft
Overcast 7000 ft
Heat Index 92 °F
Dew Point 78 °F
Humidity 87%
Rainfall 0.00 in
Snow Depth Not available.
UV 3.0 out of 12
Pollen 5.10 out of 12
Air Quality Not available.
Flu Activity Not available.
METAR KJYL 031655Z AUTO 12006KT 5SM -VCTSRA SCT012 BKN028 OVC070 26/25 A2992 RMK AO2 LTG DSNT E T02630253

More Conditions Fewer Conditions

Pressure 29.92 in
Visibility 5.0 miles
Clouds Scattered Clouds 1200 ft
Mostly Cloudy 2800 ft
Overcast 7000 ft
Heat Index 92 °F
Dew Point 78 °F
Humidity 87%
Rainfall 0.00 in
Snow Depth Not available.
UV 3.0 out of 12
Pollen 5.10 out of 12
Air Quality Not available.
Flu Activity Not available.
METAR KJYL 031655Z AUTO 12006KT 5SM -VCTSRA SCT012 BKN028 OVC070 26/25 A2992 RMK AO2 LTG DSNT E T02630253

More Conditions Fewer Conditions

10-Day Weather Forecast

×

Almanac

Astronomy

Aug. 03, 2015 Rise Set
Actual Time
Civil Twilight
Nautical Twilight
Astronomical Twilight
Moon
Length of Visible Light
Length of Day
Tomorrow will be .
, % of the Moon is Illuminated

Today's Extremes

State Highs State Lows

Community

WunderPhotos

Upload Photos

1,843,679 photos uploaded!

WunderBlogs® & News

Nearby

Air Quality

  Air Quality AQ Index Pollutant
Not available.

Snow Depth

Station Depth Elevation

Earthquake Activity

City Distance Mag. Time & Date
Minimum magnitude displayed is 2.5.

Coastal Water Temperatures

Place Temperature

Stations

Nearby Weather Stations

Station Location Temp. Windchill Dew Point Humidity Wind Precip. Elev Updated Type